sensor_id;sensor_type;location;lat;lon;timestamp;P1;durP1;ratioP1;P2;durP2;ratioP2
7231;SDS011;3657;49.630;11.018;2023-06-22T00:00:45;12.27;;;11.87;;
7231;SDS011;3657;49.630;11.018;2023-06-22T00:03:12;12.77;;;12.37;;
7231;SDS011;3657;49.630;11.018;2023-06-22T00:05:38;12.53;;;12.13;;
7231;SDS011;3657;49.630;11.018;2023-06-22T00:08:05;11.97;;;11.57;;
7231;SDS011;3657;49.630;11.018;2023-06-22T00:10:32;12.27;;;11.77;;
7231;SDS011;3657;49.630;11.018;2023-06-22T00:12:58;12.17;;;11.73;;
7231;SDS011;3657;49.630;11.018;2023-06-22T00:15:27;12.40;;;12.00;;
7231;SDS011;3657;49.630;11.018;2023-06-22T00:17:53;12.07;;;11.67;;
7231;SDS011;3657;49.630;11.018;2023-06-22T00:20:22;11.87;;;11.10;;
7231;SDS011;3657;49.630;11.018;2023-06-22T00:22:52;12.23;;;11.83;;
7231;SDS011;3657;49.630;11.018;2023-06-22T00:25:19;12.27;;;11.87;;
7231;SDS011;3657;49.630;11.018;2023-06-22T00:27:46;11.47;;;10.97;;
7231;SDS011;3657;49.630;11.018;2023-06-22T00:30:13;11.53;;;11.13;;
7231;SDS011;3657;49.630;11.018;2023-06-22T00:32:42;12.23;;;11.83;;
7231;SDS011;3657;49.630;11.018;2023-06-22T00:35:09;11.03;;;10.63;;
7231;SDS011;3657;49.630;11.018;2023-06-22T00:37:37;10.90;;;10.60;;
7231;SDS011;3657;49.630;11.018;2023-06-22T00:40:07;10.73;;;10.33;;
7231;SDS011;3657;49.630;11.018;2023-06-22T00:42:36;11.50;;;11.10;;
7231;SDS011;3657;49.630;11.018;2023-06-22T00:45:03;11.53;;;11.03;;
7231;SDS011;3657;49.630;11.018;2023-06-22T00:47:31;10.80;;;10.43;;
7231;SDS011;3657;49.630;11.018;2023-06-22T00:50:01;10.53;;;10.13;;
7231;SDS011;3657;49.630;11.018;2023-06-22T00:52:29;9.70;;;9.40;;
7231;SDS011;3657;49.630;11.018;2023-06-22T00:54:58;10.77;;;10.43;;
7231;SDS011;3657;49.630;11.018;2023-06-22T00:57:27;11.40;;;10.90;;
7231;SDS011;3657;49.630;11.018;2023-06-22T00:59:54;10.57;;;10.27;;
7231;SDS011;3657;49.630;11.018;2023-06-22T01:02:21;10.37;;;10.07;;
7231;SDS011;3657;49.630;11.018;2023-06-22T01:04:48;11.23;;;10.93;;
7231;SDS011;3657;49.630;11.018;2023-06-22T01:07:18;10.87;;;10.47;;
7231;SDS011;3657;49.630;11.018;2023-06-22T01:09:54;11.60;;;11.20;;
7231;SDS011;3657;49.630;11.018;2023-06-22T01:12:29;11.93;;;11.53;;
7231;SDS011;3657;49.630;11.018;2023-06-22T01:15:00;10.87;;;10.47;;
7231;SDS011;3657;49.630;11.018;2023-06-22T01:17:34;8.93;;;8.63;;
7231;SDS011;3657;49.630;11.018;2023-06-22T01:20:02;11.60;;;11.10;;
7231;SDS011;3657;49.630;11.018;2023-06-22T01:22:33;11.83;;;11.43;;
7231;SDS011;3657;49.630;11.018;2023-06-22T01:25:13;10.60;;;10.07;;
7231;SDS011;3657;49.630;11.018;2023-06-22T01:27:47;11.03;;;10.53;;
7231;SDS011;3657;49.630;11.018;2023-06-22T01:30:23;12.67;;;12.07;;
7231;SDS011;3657;49.630;11.018;2023-06-22T01:32:51;11.23;;;10.83;;
7231;SDS011;3657;49.630;11.018;2023-06-22T01:35:20;11.13;;;10.73;;
7231;SDS011;3657;49.630;11.018;2023-06-22T01:37:48;10.83;;;10.43;;
7231;SDS011;3657;49.630;11.018;2023-06-22T01:40:15;11.07;;;10.77;;
7231;SDS011;3657;49.630;11.018;2023-06-22T01:42:44;10.40;;;10.10;;
7231;SDS011;3657;49.630;11.018;2023-06-22T01:45:11;10.33;;;9.93;;
7231;SDS011;3657;49.630;11.018;2023-06-22T01:47:40;11.47;;;11.07;;
7231;SDS011;3657;49.630;11.018;2023-06-22T01:50:08;10.40;;;10.10;;
7231;SDS011;3657;49.630;11.018;2023-06-22T01:52:35;10.53;;;10.13;;
7231;SDS011;3657;49.630;11.018;2023-06-22T01:55:02;9.60;;;9.30;;
7231;SDS011;3657;49.630;11.018;2023-06-22T01:57:31;11.27;;;10.87;;
7231;SDS011;3657;49.630;11.018;2023-06-22T01:59:59;11.63;;;11.23;;
7231;SDS011;3657;49.630;11.018;2023-06-22T02:02:29;11.60;;;11.20;;
7231;SDS011;3657;49.630;11.018;2023-06-22T02:05:03;11.73;;;11.03;;
7231;SDS011;3657;49.630;11.018;2023-06-22T02:07:33;11.70;;;11.30;;
7231;SDS011;3657;49.630;11.018;2023-06-22T02:10:05;12.00;;;11.60;;
7231;SDS011;3657;49.630;11.018;2023-06-22T02:12:33;11.20;;;10.87;;
7231;SDS011;3657;49.630;11.018;2023-06-22T02:15:02;11.83;;;11.33;;
7231;SDS011;3657;49.630;11.018;2023-06-22T02:17:29;10.93;;;10.63;;
7231;SDS011;3657;49.630;11.018;2023-06-22T02:19:58;11.53;;;11.07;;
7231;SDS011;3657;49.630;11.018;2023-06-22T02:22:26;10.60;;;10.20;;
7231;SDS011;3657;49.630;11.018;2023-06-22T02:24:52;11.10;;;10.80;;
7231;SDS011;3657;49.630;11.018;2023-06-22T02:27:19;11.33;;;10.97;;
7231;SDS011;3657;49.630;11.018;2023-06-22T02:29:46;11.10;;;10.60;;
7231;SDS011;3657;49.630;11.018;2023-06-22T02:32:12;11.83;;;11.43;;
7231;SDS011;3657;49.630;11.018;2023-06-22T02:34:42;11.57;;;11.17;;
7231;SDS011;3657;49.630;11.018;2023-06-22T02:37:12;10.80;;;10.37;;
7231;SDS011;3657;49.630;11.018;2023-06-22T02:39:40;12.07;;;11.67;;
7231;SDS011;3657;49.630;11.018;2023-06-22T02:42:07;10.97;;;10.57;;
7231;SDS011;3657;49.630;11.018;2023-06-22T02:44:35;13.53;;;12.97;;
7231;SDS011;3657;49.630;11.018;2023-06-22T02:47:02;11.73;;;11.33;;
7231;SDS011;3657;49.630;11.018;2023-06-22T02:49:29;12.73;;;12.23;;
7231;SDS011;3657;49.630;11.018;2023-06-22T02:51:57;11.70;;;11.30;;
7231;SDS011;3657;49.630;11.018;2023-06-22T02:54:23;12.07;;;11.37;;
7231;SDS011;3657;49.630;11.018;2023-06-22T02:56:51;11.30;;;10.90;;
7231;SDS011;3657;49.630;11.018;2023-06-22T02:59:18;11.77;;;11.37;;
7231;SDS011;3657;49.630;11.018;2023-06-22T03:01:48;12.43;;;12.03;;
7231;SDS011;3657;49.630;11.018;2023-06-22T03:04:15;12.17;;;11.77;;
7231;SDS011;3657;49.630;11.018;2023-06-22T03:06:42;11.97;;;11.57;;
7231;SDS011;3657;49.630;11.018;2023-06-22T03:09:08;11.70;;;11.30;;
7231;SDS011;3657;49.630;11.018;2023-06-22T03:11:35;12.60;;;12.10;;
7231;SDS011;3657;49.630;11.018;2023-06-22T03:14:03;11.17;;;10.70;;
7231;SDS011;3657;49.630;11.018;2023-06-22T03:16:30;11.60;;;11.20;;
7231;SDS011;3657;49.630;11.018;2023-06-22T03:18:58;12.60;;;12.20;;
7231;SDS011;3657;49.630;11.018;2023-06-22T03:21:27;12.03;;;11.63;;
7231;SDS011;3657;49.630;11.018;2023-06-22T03:23:54;12.60;;;12.10;;
7231;SDS011;3657;49.630;11.018;2023-06-22T03:26:21;13.00;;;12.50;;
7231;SDS011;3657;49.630;11.018;2023-06-22T03:28:51;12.10;;;11.70;;
7231;SDS011;3657;49.630;11.018;2023-06-22T03:31:19;12.93;;;12.53;;
7231;SDS011;3657;49.630;11.018;2023-06-22T03:33:46;13.13;;;12.00;;
7231;SDS011;3657;49.630;11.018;2023-06-22T03:36:14;13.13;;;12.63;;
7231;SDS011;3657;49.630;11.018;2023-06-22T03:38:42;14.57;;;13.87;;
7231;SDS011;3657;49.630;11.018;2023-06-22T03:41:09;15.50;;;14.80;;
7231;SDS011;3657;49.630;11.018;2023-06-22T03:43:36;15.63;;;14.70;;
7231;SDS011;3657;49.630;11.018;2023-06-22T03:46:02;14.00;;;13.43;;
7231;SDS011;3657;49.630;11.018;2023-06-22T03:48:30;12.93;;;12.47;;
7231;SDS011;3657;49.630;11.018;2023-06-22T03:50:58;15.63;;;14.57;;
7231;SDS011;3657;49.630;11.018;2023-06-22T03:53:25;19.23;;;18.27;;
7231;SDS011;3657;49.630;11.018;2023-06-22T03:55:52;18.63;;;17.70;;
7231;SDS011;3657;49.630;11.018;2023-06-22T03:58:19;16.33;;;15.73;;
7231;SDS011;3657;49.630;11.018;2023-06-22T04:00:46;18.10;;;17.03;;
7231;SDS011;3657;49.630;11.018;2023-06-22T04:03:13;16.77;;;15.77;;
7231;SDS011;3657;49.630;11.018;2023-06-22T04:05:42;19.07;;;17.97;;
7231;SDS011;3657;49.630;11.018;2023-06-22T04:08:09;18.37;;;17.33;;
7231;SDS011;3657;49.630;11.018;2023-06-22T04:10:35;19.40;;;18.30;;
7231;SDS011;3657;49.630;11.018;2023-06-22T04:13:02;18.30;;;17.50;;
7231;SDS011;3657;49.630;11.018;2023-06-22T04:15:29;17.93;;;17.03;;
7231;SDS011;3657;49.630;11.018;2023-06-22T04:17:56;16.27;;;15.47;;
7231;SDS011;3657;49.630;11.018;2023-06-22T04:20:23;18.77;;;17.43;;
7231;SDS011;3657;49.630;11.018;2023-06-22T04:22:52;18.87;;;17.40;;
7231;SDS011;3657;49.630;11.018;2023-06-22T04:25:19;17.27;;;16.30;;
7231;SDS011;3657;49.630;11.018;2023-06-22T04:27:46;15.63;;;14.93;;
7231;SDS011;3657;49.630;11.018;2023-06-22T04:30:13;18.80;;;17.90;;
7231;SDS011;3657;49.630;11.018;2023-06-22T04:32:41;13.83;;;13.23;;
7231;SDS011;3657;49.630;11.018;2023-06-22T04:35:08;13.93;;;13.47;;
7231;SDS011;3657;49.630;11.018;2023-06-22T04:37:35;14.87;;;14.27;;
7231;SDS011;3657;49.630;11.018;2023-06-22T04:40:03;14.93;;;14.33;;
7231;SDS011;3657;49.630;11.018;2023-06-22T04:42:33;14.90;;;14.10;;
7231;SDS011;3657;49.630;11.018;2023-06-22T04:45:00;13.67;;;13.17;;
7231;SDS011;3657;49.630;11.018;2023-06-22T04:47:27;14.53;;;14.03;;
7231;SDS011;3657;49.630;11.018;2023-06-22T04:49:53;14.57;;;13.97;;
7231;SDS011;3657;49.630;11.018;2023-06-22T04:52:20;16.33;;;15.53;;
7231;SDS011;3657;49.630;11.018;2023-06-22T04:54:46;13.93;;;13.43;;
7231;SDS011;3657;49.630;11.018;2023-06-22T04:57:21;13.33;;;12.70;;
7231;SDS011;3657;49.630;11.018;2023-06-22T04:59:57;14.70;;;14.20;;
7231;SDS011;3657;49.630;11.018;2023-06-22T05:02:39;13.87;;;13.37;;
7231;SDS011;3657;49.630;11.018;2023-06-22T05:05:07;13.13;;;12.63;;
7231;SDS011;3657;49.630;11.018;2023-06-22T05:07:38;13.50;;;13.00;;
7231;SDS011;3657;49.630;11.018;2023-06-22T05:10:08;12.70;;;12.17;;
7231;SDS011;3657;49.630;11.018;2023-06-22T05:12:36;13.00;;;12.47;;
7231;SDS011;3657;49.630;11.018;2023-06-22T05:15:04;13.60;;;13.00;;
7231;SDS011;3657;49.630;11.018;2023-06-22T05:17:31;14.13;;;13.63;;
7231;SDS011;3657;49.630;11.018;2023-06-22T05:19:58;14.37;;;13.67;;
7231;SDS011;3657;49.630;11.018;2023-06-22T05:22:25;15.07;;;14.27;;
7231;SDS011;3657;49.630;11.018;2023-06-22T05:24:51;13.63;;;13.13;;
7231;SDS011;3657;49.630;11.018;2023-06-22T05:27:18;12.17;;;11.67;;
7231;SDS011;3657;49.630;11.018;2023-06-22T05:29:46;13.80;;;13.03;;
7231;SDS011;3657;49.630;11.018;2023-06-22T05:32:13;13.50;;;13.00;;
7231;SDS011;3657;49.630;11.018;2023-06-22T05:34:39;13.13;;;12.73;;
7231;SDS011;3657;49.630;11.018;2023-06-22T05:37:06;12.70;;;12.17;;
7231;SDS011;3657;49.630;11.018;2023-06-22T05:39:34;13.10;;;12.60;;
7231;SDS011;3657;49.630;11.018;2023-06-22T05:42:03;17.70;;;16.73;;
7231;SDS011;3657;49.630;11.018;2023-06-22T05:44:30;12.73;;;12.00;;
7231;SDS011;3657;49.630;11.018;2023-06-22T05:46:59;13.27;;;12.77;;
7231;SDS011;3657;49.630;11.018;2023-06-22T05:49:26;15.23;;;14.53;;
7231;SDS011;3657;49.630;11.018;2023-06-22T05:51:54;16.73;;;15.87;;
7231;SDS011;3657;49.630;11.018;2023-06-22T05:54:21;14.50;;;13.90;;
7231;SDS011;3657;49.630;11.018;2023-06-22T05:56:48;14.50;;;13.90;;
7231;SDS011;3657;49.630;11.018;2023-06-22T05:59:15;16.03;;;14.83;;
7231;SDS011;3657;49.630;11.018;2023-06-22T06:01:41;14.27;;;13.77;;
7231;SDS011;3657;49.630;11.018;2023-06-22T06:04:09;13.97;;;13.37;;
7231;SDS011;3657;49.630;11.018;2023-06-22T06:06:36;15.43;;;14.80;;
7231;SDS011;3657;49.630;11.018;2023-06-22T06:09:03;14.47;;;13.73;;
7231;SDS011;3657;49.630;11.018;2023-06-22T06:11:30;14.27;;;13.57;;
7231;SDS011;3657;49.630;11.018;2023-06-22T06:13:57;14.53;;;13.93;;
7231;SDS011;3657;49.630;11.018;2023-06-22T06:16:23;13.60;;;13.13;;
7231;SDS011;3657;49.630;11.018;2023-06-22T06:18:50;13.40;;;12.87;;
7231;SDS011;3657;49.630;11.018;2023-06-22T06:21:19;14.10;;;13.60;;
7231;SDS011;3657;49.630;11.018;2023-06-22T06:23:46;13.27;;;12.73;;
7231;SDS011;3657;49.630;11.018;2023-06-22T06:26:13;13.40;;;13.00;;
7231;SDS011;3657;49.630;11.018;2023-06-22T06:28:41;13.63;;;13.17;;
7231;SDS011;3657;49.630;11.018;2023-06-22T06:31:08;14.70;;;14.10;;
7231;SDS011;3657;49.630;11.018;2023-06-22T06:33:35;13.60;;;12.90;;
7231;SDS011;3657;49.630;11.018;2023-06-22T06:36:02;15.03;;;14.33;;
7231;SDS011;3657;49.630;11.018;2023-06-22T06:38:30;13.60;;;13.10;;
7231;SDS011;3657;49.630;11.018;2023-06-22T06:40:57;14.17;;;13.60;;
7231;SDS011;3657;49.630;11.018;2023-06-22T06:43:24;13.80;;;13.10;;
7231;SDS011;3657;49.630;11.018;2023-06-22T06:45:51;14.47;;;13.73;;
7231;SDS011;3657;49.630;11.018;2023-06-22T06:48:17;13.20;;;12.70;;
7231;SDS011;3657;49.630;11.018;2023-06-22T06:50:44;13.37;;;12.80;;
7231;SDS011;3657;49.630;11.018;2023-06-22T06:53:11;13.93;;;13.33;;
7231;SDS011;3657;49.630;11.018;2023-06-22T06:55:39;14.37;;;13.77;;
7231;SDS011;3657;49.630;11.018;2023-06-22T06:58:05;13.87;;;13.27;;
7231;SDS011;3657;49.630;11.018;2023-06-22T07:00:34;14.27;;;13.57;;
7231;SDS011;3657;49.630;11.018;2023-06-22T07:03:01;13.67;;;13.00;;
7231;SDS011;3657;49.630;11.018;2023-06-22T07:05:28;12.50;;;12.00;;
7231;SDS011;3657;49.630;11.018;2023-06-22T07:07:55;11.57;;;11.07;;
7231;SDS011;3657;49.630;11.018;2023-06-22T07:10:22;12.83;;;12.33;;
7231;SDS011;3657;49.630;11.018;2023-06-22T07:12:50;14.20;;;13.43;;
7231;SDS011;3657;49.630;11.018;2023-06-22T07:15:16;13.20;;;12.50;;
7231;SDS011;3657;49.630;11.018;2023-06-22T07:17:43;12.53;;;12.13;;
7231;SDS011;3657;49.630;11.018;2023-06-22T07:20:10;13.63;;;12.80;;
7231;SDS011;3657;49.630;11.018;2023-06-22T07:22:37;12.13;;;11.63;;
7231;SDS011;3657;49.630;11.018;2023-06-22T07:25:05;12.30;;;11.80;;
7231;SDS011;3657;49.630;11.018;2023-06-22T07:27:35;13.90;;;13.17;;
7231;SDS011;3657;49.630;11.018;2023-06-22T07:30:05;13.70;;;12.90;;
7231;SDS011;3657;49.630;11.018;2023-06-22T07:32:33;12.97;;;12.37;;
7231;SDS011;3657;49.630;11.018;2023-06-22T07:34:59;12.60;;;11.87;;
7231;SDS011;3657;49.630;11.018;2023-06-22T07:37:27;12.33;;;11.93;;
7231;SDS011;3657;49.630;11.018;2023-06-22T07:39:54;11.50;;;10.90;;
7231;SDS011;3657;49.630;11.018;2023-06-22T07:42:23;12.43;;;11.67;;
7231;SDS011;3657;49.630;11.018;2023-06-22T07:44:50;12.73;;;12.13;;
7231;SDS011;3657;49.630;11.018;2023-06-22T07:47:18;11.87;;;11.17;;
7231;SDS011;3657;49.630;11.018;2023-06-22T07:49:45;11.97;;;11.40;;
7231;SDS011;3657;49.630;11.018;2023-06-22T07:52:12;12.50;;;12.00;;
7231;SDS011;3657;49.630;11.018;2023-06-22T07:54:38;11.33;;;10.93;;
7231;SDS011;3657;49.630;11.018;2023-06-22T07:57:05;12.03;;;11.43;;
7231;SDS011;3657;49.630;11.018;2023-06-22T07:59:32;11.57;;;10.93;;
7231;SDS011;3657;49.630;11.018;2023-06-22T08:01:58;12.10;;;11.40;;
7231;SDS011;3657;49.630;11.018;2023-06-22T08:04:27;11.60;;;11.00;;
7231;SDS011;3657;49.630;11.018;2023-06-22T08:06:54;11.17;;;10.60;;
7231;SDS011;3657;49.630;11.018;2023-06-22T08:09:20;10.30;;;10.00;;
7231;SDS011;3657;49.630;11.018;2023-06-22T08:11:47;11.70;;;11.33;;
7231;SDS011;3657;49.630;11.018;2023-06-22T08:14:14;10.07;;;9.70;;
7231;SDS011;3657;49.630;11.018;2023-06-22T08:16:41;9.83;;;9.53;;
7231;SDS011;3657;49.630;11.018;2023-06-22T08:19:07;10.73;;;9.80;;
7231;SDS011;3657;49.630;11.018;2023-06-22T08:21:35;9.70;;;9.40;;
7231;SDS011;3657;49.630;11.018;2023-06-22T08:24:02;9.13;;;8.83;;
7231;SDS011;3657;49.630;11.018;2023-06-22T08:26:30;9.18;;;8.88;;
7231;SDS011;3657;49.630;11.018;2023-06-22T08:28:58;8.90;;;8.60;;
7231;SDS011;3657;49.630;11.018;2023-06-22T08:31:25;8.97;;;8.57;;
7231;SDS011;3657;49.630;11.018;2023-06-22T08:33:51;9.70;;;9.30;;
7231;SDS011;3657;49.630;11.018;2023-06-22T08:36:18;8.90;;;8.50;;
7231;SDS011;3657;49.630;11.018;2023-06-22T08:38:46;10.30;;;9.53;;
7231;SDS011;3657;49.630;11.018;2023-06-22T08:41:16;8.90;;;8.50;;
7231;SDS011;3657;49.630;11.018;2023-06-22T08:43:43;8.90;;;8.60;;
7231;SDS011;3657;49.630;11.018;2023-06-22T08:46:10;9.07;;;8.77;;
7231;SDS011;3657;49.630;11.018;2023-06-22T08:48:37;8.05;;;7.63;;
7231;SDS011;3657;49.630;11.018;2023-06-22T08:51:04;9.20;;;8.57;;
7231;SDS011;3657;49.630;11.018;2023-06-22T08:53:30;8.27;;;7.82;;
7231;SDS011;3657;49.630;11.018;2023-06-22T08:55:58;8.93;;;8.32;;
7231;SDS011;3657;49.630;11.018;2023-06-22T08:58:25;9.88;;;9.15;;
7231;SDS011;3657;49.630;11.018;2023-06-22T09:00:52;8.70;;;8.30;;
7231;SDS011;3657;49.630;11.018;2023-06-22T09:03:18;9.18;;;8.70;;
7231;SDS011;3657;49.630;11.018;2023-06-22T09:05:46;8.95;;;8.43;;
7231;SDS011;3657;49.630;11.018;2023-06-22T09:08:13;9.38;;;9.00;;
7231;SDS011;3657;49.630;11.018;2023-06-22T09:10:39;9.95;;;9.32;;
7231;SDS011;3657;49.630;11.018;2023-06-22T09:13:07;9.55;;;9.00;;
7231;SDS011;3657;49.630;11.018;2023-06-22T09:15:34;10.52;;;10.10;;
7231;SDS011;3657;49.630;11.018;2023-06-22T09:18:01;9.85;;;9.40;;
7231;SDS011;3657;49.630;11.018;2023-06-22T09:20:27;9.90;;;9.32;;
7231;SDS011;3657;49.630;11.018;2023-06-22T09:22:54;8.45;;;8.15;;
7231;SDS011;3657;49.630;11.018;2023-06-22T09:25:21;10.23;;;9.73;;
7231;SDS011;3657;49.630;11.018;2023-06-22T09:27:47;9.05;;;8.65;;
7231;SDS011;3657;49.630;11.018;2023-06-22T09:30:15;9.52;;;8.75;;
7231;SDS011;3657;49.630;11.018;2023-06-22T09:32:42;9.27;;;8.70;;
7231;SDS011;3657;49.630;11.018;2023-06-22T09:35:09;8.25;;;7.85;;
7231;SDS011;3657;49.630;11.018;2023-06-22T09:37:37;9.77;;;9.00;;
7231;SDS011;3657;49.630;11.018;2023-06-22T09:40:05;8.18;;;7.60;;
7231;SDS011;3657;49.630;11.018;2023-06-22T09:42:36;9.57;;;9.13;;
7231;SDS011;3657;49.630;11.018;2023-06-22T09:45:03;9.48;;;8.98;;
7231;SDS011;3657;49.630;11.018;2023-06-22T09:47:31;9.63;;;8.95;;
7231;SDS011;3657;49.630;11.018;2023-06-22T09:49:58;8.05;;;7.57;;
7231;SDS011;3657;49.630;11.018;2023-06-22T09:52:25;9.60;;;8.82;;
7231;SDS011;3657;49.630;11.018;2023-06-22T09:54:52;9.63;;;9.02;;
7231;SDS011;3657;49.630;11.018;2023-06-22T09:57:18;8.70;;;8.27;;
7231;SDS011;3657;49.630;11.018;2023-06-22T09:59:45;8.65;;;8.30;;
7231;SDS011;3657;49.630;11.018;2023-06-22T10:02:12;8.85;;;8.55;;
7231;SDS011;3657;49.630;11.018;2023-06-22T10:04:40;8.73;;;8.32;;
7231;SDS011;3657;49.630;11.018;2023-06-22T10:07:06;8.48;;;7.85;;
7231;SDS011;3657;49.630;11.018;2023-06-22T10:09:33;9.32;;;8.75;;
7231;SDS011;3657;49.630;11.018;2023-06-22T10:12:00;9.57;;;8.35;;
7231;SDS011;3657;49.630;11.018;2023-06-22T10:14:26;9.45;;;8.68;;
7231;SDS011;3657;49.630;11.018;2023-06-22T10:16:54;9.93;;;9.38;;
7231;SDS011;3657;49.630;11.018;2023-06-22T10:19:21;9.57;;;9.07;;
7231;SDS011;3657;49.630;11.018;2023-06-22T10:21:49;8.82;;;8.32;;
7231;SDS011;3657;49.630;11.018;2023-06-22T10:24:17;9.15;;;8.70;;
7231;SDS011;3657;49.630;11.018;2023-06-22T10:26:43;8.60;;;8.15;;
7231;SDS011;3657;49.630;11.018;2023-06-22T10:29:10;9.18;;;8.57;;
7231;SDS011;3657;49.630;11.018;2023-06-22T10:31:37;8.98;;;8.25;;
7231;SDS011;3657;49.630;11.018;2023-06-22T10:34:03;7.95;;;7.35;;
7231;SDS011;3657;49.630;11.018;2023-06-22T10:36:30;8.80;;;8.40;;
7231;SDS011;3657;49.630;11.018;2023-06-22T10:38:58;8.32;;;7.60;;
7231;SDS011;3657;49.630;11.018;2023-06-22T10:41:26;9.43;;;8.88;;
7231;SDS011;3657;49.630;11.018;2023-06-22T10:43:55;9.30;;;8.60;;
7231;SDS011;3657;49.630;11.018;2023-06-22T10:46:23;8.38;;;7.90;;
7231;SDS011;3657;49.630;11.018;2023-06-22T10:48:50;9.27;;;8.52;;
7231;SDS011;3657;49.630;11.018;2023-06-22T10:51:19;10.45;;;9.85;;
7231;SDS011;3657;49.630;11.018;2023-06-22T10:53:45;8.77;;;8.27;;
7231;SDS011;3657;49.630;11.018;2023-06-22T10:56:14;7.80;;;7.35;;
7231;SDS011;3657;49.630;11.018;2023-06-22T10:58:40;9.20;;;8.25;;
7231;SDS011;3657;49.630;11.018;2023-06-22T11:01:07;8.82;;;8.30;;
7231;SDS011;3657;49.630;11.018;2023-06-22T11:03:34;7.63;;;7.32;;
7231;SDS011;3657;49.630;11.018;2023-06-22T11:06:00;7.82;;;7.05;;
7231;SDS011;3657;49.630;11.018;2023-06-22T11:08:27;8.00;;;7.60;;
7231;SDS011;3657;49.630;11.018;2023-06-22T11:10:54;7.65;;;7.22;;
7231;SDS011;3657;49.630;11.018;2023-06-22T11:13:22;9.70;;;8.95;;
7231;SDS011;3657;49.630;11.018;2023-06-22T11:15:49;7.95;;;7.40;;
7231;SDS011;3657;49.630;11.018;2023-06-22T11:18:16;8.10;;;7.68;;
7231;SDS011;3657;49.630;11.018;2023-06-22T11:20:43;7.68;;;7.18;;
7231;SDS011;3657;49.630;11.018;2023-06-22T11:23:09;7.85;;;7.45;;
7231;SDS011;3657;49.630;11.018;2023-06-22T11:25:37;8.52;;;8.02;;
7231;SDS011;3657;49.630;11.018;2023-06-22T11:28:04;9.02;;;8.50;;
7231;SDS011;3657;49.630;11.018;2023-06-22T11:30:32;8.07;;;7.68;;
7231;SDS011;3657;49.630;11.018;2023-06-22T11:32:59;7.82;;;7.47;;
7231;SDS011;3657;49.630;11.018;2023-06-22T11:35:26;7.88;;;7.50;;
7231;SDS011;3657;49.630;11.018;2023-06-22T11:37:53;7.85;;;7.35;;
7231;SDS011;3657;49.630;11.018;2023-06-22T11:40:21;8.45;;;7.80;;
7231;SDS011;3657;49.630;11.018;2023-06-22T11:42:48;8.07;;;7.65;;
7231;SDS011;3657;49.630;11.018;2023-06-22T11:45:14;8.57;;;7.85;;
7231;SDS011;3657;49.630;11.018;2023-06-22T11:47:43;8.40;;;7.80;;
7231;SDS011;3657;49.630;11.018;2023-06-22T11:50:10;7.63;;;7.10;;
7231;SDS011;3657;49.630;11.018;2023-06-22T11:52:37;7.35;;;6.65;;
7231;SDS011;3657;49.630;11.018;2023-06-22T11:55:04;7.28;;;6.70;;
7231;SDS011;3657;49.630;11.018;2023-06-22T11:57:32;7.82;;;7.35;;
7231;SDS011;3657;49.630;11.018;2023-06-22T12:00:00;7.63;;;7.00;;
7231;SDS011;3657;49.630;11.018;2023-06-22T12:02:31;8.18;;;7.55;;
7231;SDS011;3657;49.630;11.018;2023-06-22T12:04:59;8.68;;;8.07;;
7231;SDS011;3657;49.630;11.018;2023-06-22T12:07:29;8.32;;;7.78;;
7231;SDS011;3657;49.630;11.018;2023-06-22T12:09:56;10.10;;;8.05;;
7231;SDS011;3657;49.630;11.018;2023-06-22T12:12:22;7.95;;;7.40;;
7231;SDS011;3657;49.630;11.018;2023-06-22T12:14:49;8.75;;;8.10;;
7231;SDS011;3657;49.630;11.018;2023-06-22T12:17:16;7.97;;;7.32;;
7231;SDS011;3657;49.630;11.018;2023-06-22T12:19:42;9.40;;;8.68;;
7231;SDS011;3657;49.630;11.018;2023-06-22T12:22:10;9.13;;;8.35;;
7231;SDS011;3657;49.630;11.018;2023-06-22T12:24:37;8.93;;;8.23;;
7231;SDS011;3657;49.630;11.018;2023-06-22T12:27:04;7.68;;;7.20;;
7231;SDS011;3657;49.630;11.018;2023-06-22T12:29:31;8.65;;;8.05;;
7231;SDS011;3657;49.630;11.018;2023-06-22T12:31:57;8.00;;;7.40;;
7231;SDS011;3657;49.630;11.018;2023-06-22T12:34:24;8.07;;;7.55;;
7231;SDS011;3657;49.630;11.018;2023-06-22T12:36:51;6.85;;;6.30;;
7231;SDS011;3657;49.630;11.018;2023-06-22T12:39:20;8.38;;;7.70;;
7231;SDS011;3657;49.630;11.018;2023-06-22T12:41:47;7.30;;;6.80;;
7231;SDS011;3657;49.630;11.018;2023-06-22T12:44:14;7.93;;;7.20;;
7231;SDS011;3657;49.630;11.018;2023-06-22T12:46:40;9.63;;;8.07;;
7231;SDS011;3657;49.630;11.018;2023-06-22T12:49:07;6.80;;;6.50;;
7231;SDS011;3657;49.630;11.018;2023-06-22T12:51:38;10.10;;;8.43;;
7231;SDS011;3657;49.630;11.018;2023-06-22T12:54:06;7.90;;;7.32;;
7231;SDS011;3657;49.630;11.018;2023-06-22T12:56:34;8.50;;;6.72;;
7231;SDS011;3657;49.630;11.018;2023-06-22T12:59:01;9.13;;;6.57;;
7231;SDS011;3657;49.630;11.018;2023-06-22T13:01:28;9.68;;;8.15;;
7231;SDS011;3657;49.630;11.018;2023-06-22T13:03:55;7.53;;;6.85;;
7231;SDS011;3657;49.630;11.018;2023-06-22T13:06:21;7.88;;;7.15;;
7231;SDS011;3657;49.630;11.018;2023-06-22T13:08:48;7.03;;;6.43;;
7231;SDS011;3657;49.630;11.018;2023-06-22T13:11:15;10.10;;;8.35;;
7231;SDS011;3657;49.630;11.018;2023-06-22T13:13:44;10.45;;;7.75;;
7231;SDS011;3657;49.630;11.018;2023-06-22T13:16:11;7.90;;;7.30;;
7231;SDS011;3657;49.630;11.018;2023-06-22T13:18:38;6.47;;;5.90;;
7231;SDS011;3657;49.630;11.018;2023-06-22T13:21:05;8.38;;;7.57;;
7231;SDS011;3657;49.630;11.018;2023-06-22T13:23:31;8.85;;;7.90;;
7231;SDS011;3657;49.630;11.018;2023-06-22T13:25:59;8.32;;;7.55;;
7231;SDS011;3657;49.630;11.018;2023-06-22T13:28:25;9.65;;;8.68;;
7231;SDS011;3657;49.630;11.018;2023-06-22T13:30:55;8.40;;;7.60;;
7231;SDS011;3657;49.630;11.018;2023-06-22T13:33:22;8.00;;;7.18;;
7231;SDS011;3657;49.630;11.018;2023-06-22T13:35:48;7.40;;;6.82;;
7231;SDS011;3657;49.630;11.018;2023-06-22T13:38:15;9.02;;;7.65;;
7231;SDS011;3657;49.630;11.018;2023-06-22T13:40:42;8.13;;;7.50;;
7231;SDS011;3657;49.630;11.018;2023-06-22T13:43:12;8.20;;;6.72;;
7231;SDS011;3657;49.630;11.018;2023-06-22T13:45:39;8.68;;;7.80;;
7231;SDS011;3657;49.630;11.018;2023-06-22T13:48:08;8.60;;;8.10;;
7231;SDS011;3657;49.630;11.018;2023-06-22T13:50:35;8.73;;;7.75;;
7231;SDS011;3657;49.630;11.018;2023-06-22T13:53:02;8.45;;;7.63;;
7231;SDS011;3657;49.630;11.018;2023-06-22T13:55:29;8.98;;;8.30;;
7231;SDS011;3657;49.630;11.018;2023-06-22T13:57:55;7.78;;;7.30;;
7231;SDS011;3657;49.630;11.018;2023-06-22T14:00:22;7.72;;;7.00;;
7231;SDS011;3657;49.630;11.018;2023-06-22T14:02:49;7.20;;;6.53;;
7231;SDS011;3657;49.630;11.018;2023-06-22T14:05:17;7.65;;;7.05;;
7231;SDS011;3657;49.630;11.018;2023-06-22T14:07:58;7.22;;;6.53;;
7231;SDS011;3657;49.630;11.018;2023-06-22T14:10:25;7.13;;;6.60;;
7231;SDS011;3657;49.630;11.018;2023-06-22T14:12:51;6.78;;;6.35;;
7231;SDS011;3657;49.630;11.018;2023-06-22T14:15:18;7.45;;;6.78;;
7231;SDS011;3657;49.630;11.018;2023-06-22T14:17:45;8.80;;;7.93;;
7231;SDS011;3657;49.630;11.018;2023-06-22T14:20:12;8.82;;;8.02;;
7231;SDS011;3657;49.630;11.018;2023-06-22T14:22:40;8.95;;;8.35;;
7231;SDS011;3657;49.630;11.018;2023-06-22T14:25:07;7.97;;;7.25;;
7231;SDS011;3657;49.630;11.018;2023-06-22T14:27:34;10.55;;;8.43;;
7231;SDS011;3657;49.630;11.018;2023-06-22T14:30:01;9.02;;;7.78;;
7231;SDS011;3657;49.630;11.018;2023-06-22T14:32:28;9.80;;;8.80;;
7231;SDS011;3657;49.630;11.018;2023-06-22T14:34:55;8.35;;;7.50;;
7231;SDS011;3657;49.630;11.018;2023-06-22T14:37:22;9.75;;;7.95;;
7231;SDS011;3657;49.630;11.018;2023-06-22T14:39:50;10.32;;;9.23;;
7231;SDS011;3657;49.630;11.018;2023-06-22T14:42:17;8.75;;;7.95;;
7231;SDS011;3657;49.630;11.018;2023-06-22T14:44:43;7.93;;;7.43;;
7231;SDS011;3657;49.630;11.018;2023-06-22T14:47:10;8.15;;;7.53;;